Time,TemperatureF,DewpointF,PressureIn,WindDirection,WindDirectionDegrees,WindSpeedMPH,WindSpeedGustMPH,Humidity,HourlyPrecipIn,Conditions,Clouds,dailyrainin,SoftwareType,DateUTC
2013-07-26 00:05:00,62.1,60.0,30.06,NNE,23,0.0,0.0,93,0.02,,,0.02,weatherlink.com 1.10,2013-07-26 04:05:00,
2013-07-26 00:20:00,61.9,60.0,30.06,NNE,23,0.0,0.0,94,0.01,,,0.00,weatherlink.com 1.10,2013-07-26 04:20:00,
2013-07-26 00:35:00,61.8,60.0,30.06,NNE,23,0.0,0.0,94,0.01,,,0.00,weatherlink.com 1.10,2013-07-26 04:35:00,
2013-07-26 00:50:00,61.8,60.0,30.05,NNE,23,0.0,0.0,94,0.00,,,0.00,weatherlink.com 1.10,2013-07-26 04:50:00,
2013-07-26 01:05:00,61.8,60.0,30.05,NNE,23,0.0,0.0,94,0.00,,,0.00,weatherlink.com 1.10,2013-07-26 05:05:00,
2013-07-26 01:20:00,61.9,61.0,30.05,NNE,23,0.0,0.0,95,0.00,,,0.00,weatherlink.com 1.10,2013-07-26 05:20:00,
2013-07-26 01:35:00,61.8,60.0,30.05,NNE,23,0.0,0.0,94,0.00,,,0.00,weatherlink.com 1.10,2013-07-26 05:35:00,
2013-07-26 01:50:00,61.8,60.0,30.04,NNE,23,0.0,0.0,93,0.00,,,0.00,weatherlink.com 1.10,2013-07-26 05:50:00,
2013-07-26 02:05:00,61.9,60.0,30.04,NNE,23,0.0,1.0,93,0.00,,,0.00,weatherlink.com 1.10,2013-07-26 06:05:00,
2013-07-26 02:20:00,62.0,60.0,30.04,NNE,23,0.0,1.0,93,0.00,,,0.00,weatherlink.com 1.10,2013-07-26 06:20:00,
2013-07-26 02:36:00,62.1,60.0,30.04,NNE,23,1.0,1.0,93,0.00,,,0.00,weatherlink.com 1.10,2013-07-26 06:36:00,
2013-07-26 02:51:00,62.1,60.0,30.04,NNE,23,0.0,0.0,93,0.00,,,0.00,weatherlink.com 1.10,2013-07-26 06:51:00,
2013-07-26 03:06:00,62.0,60.0,30.04,NNE,23,0.0,0.0,94,0.00,,,0.00,weatherlink.com 1.10,2013-07-26 07:06:00,
2013-07-26 03:21:00,62.0,60.0,30.03,NNE,23,0.0,1.0,93,0.00,,,0.00,weatherlink.com 1.10,2013-07-26 07:21:00,
2013-07-26 03:36:00,62.1,60.0,30.03,NNE,23,0.0,1.0,93,0.00,,,0.00,weatherlink.com 1.10,2013-07-26 07:36:00,
2013-07-26 03:51:00,62.1,60.0,30.03,NNE,23,0.0,2.0,92,0.00,,,0.00,weatherlink.com 1.10,2013-07-26 07:51:00,
2013-07-26 04:06:00,62.3,60.0,30.02,NNE,23,0.0,1.0,92,0.00,,,0.00,weatherlink.com 1.10,2013-07-26 08:06:00,
2013-07-26 04:21:00,62.4,60.0,30.02,NNE,20,0.0,2.0,91,0.00,,,0.00,weatherlink.com 1.10,2013-07-26 08:21:00,
2013-07-26 04:36:00,62.5,61.0,30.02,NNE,20,0.0,1.0,93,0.00,,,0.00,weatherlink.com 1.10,2013-07-26 08:36:00,
2013-07-26 04:51:00,62.5,60.0,30.02,NNE,20,1.0,2.0,91,0.00,,,0.00,weatherlink.com 1.10,2013-07-26 08:51:00,
2013-07-26 05:06:00,62.8,60.0,30.02,NNE,20,1.0,3.0,91,0.00,,,0.00,weatherlink.com 1.10,2013-07-26 09:06:00,
2013-07-26 05:21:00,63.0,60.0,30.02,NNE,20,0.0,2.0,90,0.00,,,0.00,weatherlink.com 1.10,2013-07-26 09:21:00,
2013-07-26 05:36:00,63.0,60.0,30.03,NNE,20,0.0,2.0,90,0.00,,,0.00,weatherlink.com 1.10,2013-07-26 09:36:00,
2013-07-26 05:51:00,63.1,60.0,30.03,NNE,20,0.0,3.0,89,0.00,,,0.00,weatherlink.com 1.10,2013-07-26 09:51:00,
2013-07-26 06:06:00,63.3,60.0,30.04,NNE,20,0.0,1.0,90,0.00,,,0.00,weatherlink.com 1.10,2013-07-26 10:06:00,
2013-07-26 06:21:00,63.2,60.0,30.03,NNE,20,0.0,1.0,89,0.00,,,0.00,weatherlink.com 1.10,2013-07-26 10:21:00,
2013-07-26 06:36:00,63.4,60.0,30.02,NNE,20,0.0,2.0,88,0.00,,,0.00,weatherlink.com 1.10,2013-07-26 10:36:00,
2013-07-26 07:06:00,63.6,60.0,30.02,NNW,346,1.0,4.0,87,0.00,,,0.00,weatherlink.com 1.10,2013-07-26 11:06:00,
2013-07-26 08:06:00,63.8,60.0,30.02,North,355,0.0,3.0,87,0.00,,,0.00,weatherlink.com 1.10,2013-07-26 12:06:00,
2013-07-26 08:21:00,64.1,60.0,30.03,North,5,0.0,3.0,87,0.00,,,0.00,weatherlink.com 1.10,2013-07-26 12:21:00,
2013-07-26 08:51:00,64.1,60.0,30.03,NW,324,1.0,2.0,87,0.00,,,0.00,weatherlink.com 1.10,2013-07-26 12:51:00,
2013-07-26 09:06:00,64.4,61.0,30.03,NNW,338,2.0,3.0,87,0.00,,,0.00,weatherlink.com 1.10,2013-07-26 13:06:00,
2013-07-26 09:21:00,64.9,60.0,30.03,NNW,344,0.0,3.0,85,0.00,,,0.00,weatherlink.com 1.10,2013-07-26 13:21:00,
2013-07-26 09:36:00,65.3,61.0,30.03,North,355,1.0,3.0,85,0.00,,,0.00,weatherlink.com 1.10,2013-07-26 13:36:00,
2013-07-26 10:06:00,67.0,62.0,30.03,North,350,2.0,4.0,84,0.00,,,0.00,weatherlink.com 1.10,2013-07-26 14:06:00,
2013-07-26 10:36:00,67.8,61.0,30.03,NNW,342,1.0,4.0,80,0.00,,,0.00,weatherlink.com 1.10,2013-07-26 14:36:00,
2013-07-26 10:51:00,68.0,62.0,30.03,NNW,340,1.0,4.0,81,0.00,,,0.00,weatherlink.com 1.10,2013-07-26 14:51:00,
2013-07-26 11:06:00,68.4,62.0,30.03,North,355,2.0,4.0,80,0.00,,,0.00,weatherlink.com 1.10,2013-07-26 15:06:00,
2013-07-26 11:21:00,68.6,62.0,30.03,NNW,345,0.0,4.0,79,0.00,,,0.00,weatherlink.com 1.10,2013-07-26 15:21:00,
2013-07-26 11:51:00,69.1,62.0,30.04,NNW,348,1.0,4.0,78,0.00,,,0.00,weatherlink.com 1.10,2013-07-26 15:51:00,
2013-07-26 12:06:00,69.8,63.0,30.03,NNW,344,3.0,5.0,78,0.00,,,0.00,weatherlink.com 1.10,2013-07-26 16:06:00,
2013-07-26 12:22:00,70.4,63.0,30.03,WSW,238,1.0,5.0,76,0.00,,,0.00,weatherlink.com 1.10,2013-07-26 16:22:00,
2013-07-26 12:52:00,72.9,63.0,30.03,NNE,13,4.0,9.0,71,0.00,,,0.00,weatherlink.com 1.10,2013-07-26 16:52:00,
2013-07-26 13:07:00,72.5,64.0,30.03,NNW,338,1.0,4.0,75,0.00,,,0.00,weatherlink.com 1.10,2013-07-26 17:07:00,
2013-07-26 13:22:00,71.1,63.0,30.03,NW,317,0.0,2.0,75,0.00,,,0.00,weatherlink.com 1.10,2013-07-26 17:22:00,
2013-07-26 13:37:00,71.4,64.0,30.03,NNE,15,4.0,4.0,78,0.00,,,0.00,weatherlink.com 1.10,2013-07-26 17:37:00,
2013-07-26 13:52:00,71.9,64.0,30.03,NNW,340,2.0,6.0,75,0.00,,,0.00,weatherlink.com 1.10,2013-07-26 17:52:00,
2013-07-26 14:07:00,72.3,64.0,30.02,NNW,348,1.0,3.0,74,0.00,,,0.00,weatherlink.com 1.10,2013-07-26 18:07:00,
2013-07-26 14:22:00,73.7,65.0,30.01,NNE,17,0.0,6.0,75,0.00,,,0.00,weatherlink.com 1.10,2013-07-26 18:22:00,
2013-07-26 14:37:00,75.1,65.0,30.01,North,350,4.0,5.0,71,0.00,,,0.00,weatherlink.com 1.10,2013-07-26 18:37:00,
2013-07-26 14:53:00,75.7,64.0,30.01,West,281,1.0,7.0,68,0.00,,,0.00,weatherlink.com 1.10,2013-07-26 18:53:00,
2013-07-26 15:07:00,75.4,63.0,30.01,West,277,1.0,3.0,66,0.00,,,0.00,weatherlink.com 1.10,2013-07-26 19:07:00,
2013-07-26 15:22:00,75.5,64.0,30.01,WSW,238,0.0,5.0,67,0.00,,,0.00,weatherlink.com 1.10,2013-07-26 19:22:00,
2013-07-26 15:37:00,75.3,64.0,30.01,WSW,242,1.0,5.0,67,0.00,,,0.00,weatherlink.com 1.10,2013-07-26 19:37:00,
2013-07-26 15:52:00,75.7,65.0,30.00,WSW,249,1.0,8.0,69,0.00,,,0.00,weatherlink.com 1.10,2013-07-26 19:52:00,
2013-07-26 16:07:00,77.0,64.0,30.00,WSW,243,1.0,5.0,64,0.00,,,0.00,weatherlink.com 1.10,2013-07-26 20:07:00,
2013-07-26 16:22:00,77.4,66.0,30.00,SW,230,3.0,8.0,67,0.00,,,0.00,weatherlink.com 1.10,2013-07-26 20:22:00,
2013-07-26 16:37:00,77.3,63.0,30.00,South,177,0.0,9.0,61,0.00,,,0.00,weatherlink.com 1.10,2013-07-26 20:37:00,
2013-07-26 16:52:00,77.9,64.0,30.00,WNW,284,0.0,3.0,62,0.00,,,0.00,weatherlink.com 1.10,2013-07-26 20:52:00,
2013-07-26 17:07:00,78.2,64.0,30.00,WSW,248,0.0,5.0,62,0.00,,,0.00,weatherlink.com 1.10,2013-07-26 21:07:00,
2013-07-26 17:22:00,78.4,64.0,30.00,SW,229,4.0,8.0,62,0.00,,,0.00,weatherlink.com 1.10,2013-07-26 21:22:00,
2013-07-26 17:37:00,78.2,64.0,29.99,SSW,200,0.0,6.0,61,0.00,,,0.00,weatherlink.com 1.10,2013-07-26 21:37:00,
2013-07-26 17:52:00,78.1,65.0,29.99,WSW,244,3.0,3.0,65,0.00,,,0.00,weatherlink.com 1.10,2013-07-26 21:52:00,
2013-07-26 18:07:00,78.0,65.0,30.00,SW,234,1.0,4.0,64,0.00,,,0.00,weatherlink.com 1.10,2013-07-26 22:07:00,
2013-07-26 18:22:00,77.9,64.0,30.00,WSW,246,0.0,3.0,62,0.00,,,0.00,weatherlink.com 1.10,2013-07-26 22:22:00,
2013-07-26 18:37:00,77.5,65.0,30.00,West,268,0.0,5.0,65,0.00,,,0.00,weatherlink.com 1.10,2013-07-26 22:37:00,
2013-07-26 18:52:00,78.1,68.0,30.00,West,268,0.0,2.0,70,0.00,,,0.00,weatherlink.com 1.10,2013-07-26 22:52:00,
2013-07-26 19:07:00,77.9,67.0,30.00,SW,225,0.0,1.0,70,0.00,,,0.00,weatherlink.com 1.10,2013-07-26 23:07:00,
2013-07-26 19:22:00,76.1,67.0,30.01,SW,225,0.0,1.0,73,0.00,,,0.00,weatherlink.com 1.10,2013-07-26 23:22:00,
2013-07-26 19:37:00,73.8,67.0,30.01,SW,225,0.0,1.0,78,0.00,,,0.00,weatherlink.com 1.10,2013-07-26 23:37:00,
2013-07-26 19:52:00,72.8,67.0,30.01,SW,225,0.0,0.0,81,0.00,,,0.00,weatherlink.com 1.10,2013-07-26 23:52:00,
2013-07-26 20:07:00,71.7,66.0,30.01,SW,225,0.0,0.0,83,0.00,,,0.00,weatherlink.com 1.10,2013-07-27 00:07:00,
2013-07-26 20:22:00,70.7,66.0,30.02,SW,225,0.0,0.0,84,0.00,,,0.00,weatherlink.com 1.10,2013-07-27 00:22:00,
2013-07-26 20:37:00,70.0,65.0,30.02,SW,225,0.0,0.0,85,0.00,,,0.00,weatherlink.com 1.10,2013-07-27 00:37:00,
2013-07-26 20:52:00,69.0,65.0,30.02,SW,225,0.0,0.0,87,0.00,,,0.00,weatherlink.com 1.10,2013-07-27 00:52:00,
2013-07-26 21:07:00,68.2,65.0,30.02,SW,225,0.0,0.0,89,0.00,,,0.00,weatherlink.com 1.10,2013-07-27 01:07:00,
2013-07-26 21:22:00,67.5,65.0,30.03,SW,225,0.0,0.0,90,0.00,,,0.00,weatherlink.com 1.10,2013-07-27 01:22:00,
2013-07-26 21:37:00,66.8,64.0,30.03,SW,225,0.0,0.0,90,0.00,,,0.00,weatherlink.com 1.10,2013-07-27 01:37:00,
2013-07-26 21:52:00,66.2,64.0,30.04,SW,225,0.0,0.0,91,0.00,,,0.00,weatherlink.com 1.10,2013-07-27 01:52:00,
2013-07-26 22:07:00,65.7,63.0,30.04,SW,225,0.0,0.0,92,0.00,,,0.00,weatherlink.com 1.10,2013-07-27 02:07:00,
2013-07-26 22:22:00,65.4,63.0,30.04,SW,225,0.0,0.0,92,0.00,,,0.00,weatherlink.com 1.10,2013-07-27 02:22:00,
2013-07-26 22:37:00,64.9,63.0,30.04,SW,225,0.0,0.0,93,0.00,,,0.00,weatherlink.com 1.10,2013-07-27 02:37:00,
2013-07-26 22:52:00,64.6,63.0,30.04,SW,225,0.0,0.0,94,0.00,,,0.00,weatherlink.com 1.10,2013-07-27 02:52:00,
2013-07-26 23:07:00,64.3,63.0,30.04,SW,225,0.0,0.0,94,0.00,,,0.00,weatherlink.com 1.10,2013-07-27 03:07:00,
2013-07-26 23:22:00,64.1,62.0,30.04,SW,225,0.0,0.0,94,0.00,,,0.00,weatherlink.com 1.10,2013-07-27 03:22:00,
2013-07-26 23:37:00,63.9,62.0,30.05,SW,225,0.0,0.0,94,0.00,,,0.00,weatherlink.com 1.10,2013-07-27 03:37:00,
2013-07-26 23:52:00,63.7,62.0,30.05,SW,225,0.0,0.0,94,0.00,,,0.00,weatherlink.com 1.10,2013-07-27 03:52:00,